sensor_id;sensor_type;location;lat;lon;timestamp;temperature;humidity
12811;DHT22;6470;47.654;7.896;2024-03-25T00:00:16;1.90;99.90
12811;DHT22;6470;47.654;7.896;2024-03-25T00:02:43;5.30;99.90
12811;DHT22;6470;47.654;7.896;2024-03-25T00:05:09;5.50;99.90
12811;DHT22;6470;47.654;7.896;2024-03-25T00:07:36;5.30;99.90
12811;DHT22;6470;47.654;7.896;2024-03-25T00:10:03;2.30;99.90
12811;DHT22;6470;47.654;7.896;2024-03-25T00:17:21;5.70;99.90
12811;DHT22;6470;47.654;7.896;2024-03-25T00:19:47;1.90;99.90
12811;DHT22;6470;47.654;7.896;2024-03-25T00:22:20;5.20;99.90
12811;DHT22;6470;47.654;7.896;2024-03-25T00:24:46;4.80;99.90
12811;DHT22;6470;47.654;7.896;2024-03-25T00:27:13;5.10;99.90
12811;DHT22;6470;47.654;7.896;2024-03-25T00:32:05;1.90;99.90
12811;DHT22;6470;47.654;7.896;2024-03-25T00:34:32;4.90;99.90
12811;DHT22;6470;47.654;7.896;2024-03-25T00:36:58;5.00;99.90
12811;DHT22;6470;47.654;7.896;2024-03-25T00:39:24;1.80;99.90
12811;DHT22;6470;47.654;7.896;2024-03-25T00:44:17;5.00;99.90
12811;DHT22;6470;47.654;7.896;2024-03-25T00:46:43;5.50;99.90
12811;DHT22;6470;47.654;7.896;2024-03-25T00:49:09;4.70;99.90
12811;DHT22;6470;47.654;7.896;2024-03-25T00:51:35;4.50;99.90
12811;DHT22;6470;47.654;7.896;2024-03-25T00:54:01;4.90;99.90
12811;DHT22;6470;47.654;7.896;2024-03-25T00:56:27;4.60;99.90
12811;DHT22;6470;47.654;7.896;2024-03-25T00:58:53;4.40;99.90
12811;DHT22;6470;47.654;7.896;2024-03-25T01:01:19;2.80;99.90
12811;DHT22;6470;47.654;7.896;2024-03-25T01:03:44;1.90;99.90
12811;DHT22;6470;47.654;7.896;2024-03-25T01:08:36;5.60;99.90
12811;DHT22;6470;47.654;7.896;2024-03-25T01:11:02;6.00;99.90
12811;DHT22;6470;47.654;7.896;2024-03-25T01:23:12;5.00;99.90
12811;DHT22;6470;47.654;7.896;2024-03-25T01:25:38;4.80;99.90
12811;DHT22;6470;47.654;7.896;2024-03-25T01:28:03;4.60;99.90
12811;DHT22;6470;47.654;7.896;2024-03-25T01:30:29;4.90;99.90
12811;DHT22;6470;47.654;7.896;2024-03-25T01:32:55;1.80;99.90
12811;DHT22;6470;47.654;7.896;2024-03-25T01:35:21;4.70;99.90
12811;DHT22;6470;47.654;7.896;2024-03-25T01:40:13;5.40;99.90
12811;DHT22;6470;47.654;7.896;2024-03-25T01:42:40;4.90;99.90
12811;DHT22;6470;47.654;7.896;2024-03-25T01:47:36;4.70;99.90
12811;DHT22;6470;47.654;7.896;2024-03-25T01:50:04;5.10;99.90
12811;DHT22;6470;47.654;7.896;2024-03-25T01:54:57;1.90;99.90
12811;DHT22;6470;47.654;7.896;2024-03-25T02:02:15;5.40;99.90
12811;DHT22;6470;47.654;7.896;2024-03-25T02:04:42;1.70;99.90
12811;DHT22;6470;47.654;7.896;2024-03-25T02:07:10;4.90;99.90
12811;DHT22;6470;47.654;7.896;2024-03-25T02:14:29;4.80;99.90
12811;DHT22;6470;47.654;7.896;2024-03-25T02:16:55;5.40;99.90
12811;DHT22;6470;47.654;7.896;2024-03-25T02:19:22;4.30;99.90
12811;DHT22;6470;47.654;7.896;2024-03-25T02:21:49;4.90;99.90
12811;DHT22;6470;47.654;7.896;2024-03-25T02:24:15;5.50;99.90
12811;DHT22;6470;47.654;7.896;2024-03-25T02:26:44;2.40;99.90
12811;DHT22;6470;47.654;7.896;2024-03-25T02:29:10;5.50;99.90
12811;DHT22;6470;47.654;7.896;2024-03-25T02:31:36;2.00;99.90
12811;DHT22;6470;47.654;7.896;2024-03-25T02:34:01;5.40;99.90
12811;DHT22;6470;47.654;7.896;2024-03-25T02:38:53;1.80;99.90
12811;DHT22;6470;47.654;7.896;2024-03-25T02:41:19;5.70;99.90
12811;DHT22;6470;47.654;7.896;2024-03-25T02:46:11;5.10;99.90
12811;DHT22;6470;47.654;7.896;2024-03-25T02:51:03;4.50;99.90
12811;DHT22;6470;47.654;7.896;2024-03-25T02:53:29;1.90;99.90
12811;DHT22;6470;47.654;7.896;2024-03-25T02:55:54;1.80;99.90
12811;DHT22;6470;47.654;7.896;2024-03-25T03:00:47;2.40;99.90
12811;DHT22;6470;47.654;7.896;2024-03-25T03:03:12;5.00;99.90
12811;DHT22;6470;47.654;7.896;2024-03-25T03:05:38;1.20;99.90
12811;DHT22;6470;47.654;7.896;2024-03-25T03:08:04;5.10;99.90
12811;DHT22;6470;47.654;7.896;2024-03-25T03:10:30;4.90;99.90
12811;DHT22;6470;47.654;7.896;2024-03-25T03:12:55;4.90;99.90
12811;DHT22;6470;47.654;7.896;2024-03-25T03:22:39;5.20;99.90
12811;DHT22;6470;47.654;7.896;2024-03-25T03:25:05;2.20;99.90
12811;DHT22;6470;47.654;7.896;2024-03-25T03:27:31;5.20;99.90
12811;DHT22;6470;47.654;7.896;2024-03-25T03:29:57;5.50;99.90
12811;DHT22;6470;47.654;7.896;2024-03-25T03:34:49;5.10;99.90
12811;DHT22;6470;47.654;7.896;2024-03-25T03:39:41;5.10;99.90
12811;DHT22;6470;47.654;7.896;2024-03-25T03:42:07;1.70;99.90
12811;DHT22;6470;47.654;7.896;2024-03-25T03:46:58;4.60;99.90
12811;DHT22;6470;47.654;7.896;2024-03-25T03:51:50;1.20;99.90
12811;DHT22;6470;47.654;7.896;2024-03-25T03:54:16;4.70;99.90
12811;DHT22;6470;47.654;7.896;2024-03-25T03:56:41;4.60;99.90
12811;DHT22;6470;47.654;7.896;2024-03-25T03:59:08;4.00;99.90
12811;DHT22;6470;47.654;7.896;2024-03-25T04:04:00;4.30;99.90
12811;DHT22;6470;47.654;7.896;2024-03-25T04:11:17;4.40;99.90
12811;DHT22;6470;47.654;7.896;2024-03-25T04:16:09;4.70;99.90
12811;DHT22;6470;47.654;7.896;2024-03-25T04:18:36;3.70;99.90
12811;DHT22;6470;47.654;7.896;2024-03-25T04:23:27;3.90;99.90
12811;DHT22;6470;47.654;7.896;2024-03-25T04:25:53;3.90;99.90
12811;DHT22;6470;47.654;7.896;2024-03-25T04:28:19;3.90;99.90
12811;DHT22;6470;47.654;7.896;2024-03-25T04:30:51;3.50;99.90
12811;DHT22;6470;47.654;7.896;2024-03-25T04:35:44;4.00;99.90
12811;DHT22;6470;47.654;7.896;2024-03-25T04:38:10;3.80;99.90
12811;DHT22;6470;47.654;7.896;2024-03-25T04:40:36;3.80;99.90
12811;DHT22;6470;47.654;7.896;2024-03-25T04:43:02;3.20;99.90
12811;DHT22;6470;47.654;7.896;2024-03-25T04:45:28;2.40;99.90
12811;DHT22;6470;47.654;7.896;2024-03-25T04:50:20;2.40;99.90
12811;DHT22;6470;47.654;7.896;2024-03-25T04:55:12;3.00;99.90
12811;DHT22;6470;47.654;7.896;2024-03-25T04:57:38;-0.50;99.90
12811;DHT22;6470;47.654;7.896;2024-03-25T05:00:04;2.50;99.90
12811;DHT22;6470;47.654;7.896;2024-03-25T05:04:56;2.30;99.90
12811;DHT22;6470;47.654;7.896;2024-03-25T05:07:21;2.70;99.90
12811;DHT22;6470;47.654;7.896;2024-03-25T05:09:47;3.00;99.90
12811;DHT22;6470;47.654;7.896;2024-03-25T05:12:13;2.40;99.90
12811;DHT22;6470;47.654;7.896;2024-03-25T05:14:38;2.90;99.90
12811;DHT22;6470;47.654;7.896;2024-03-25T05:17:04;2.70;99.90
12811;DHT22;6470;47.654;7.896;2024-03-25T05:19:31;2.50;99.90
12811;DHT22;6470;47.654;7.896;2024-03-25T05:21:56;2.80;99.90
12811;DHT22;6470;47.654;7.896;2024-03-25T05:26:48;-1.40;99.90
12811;DHT22;6470;47.654;7.896;2024-03-25T05:29:14;-1.20;99.90
12811;DHT22;6470;47.654;7.896;2024-03-25T05:31:39;2.80;99.90
12811;DHT22;6470;47.654;7.896;2024-03-25T05:34:20;2.50;99.90
12811;DHT22;6470;47.654;7.896;2024-03-25T05:36:46;-1.40;99.90
12811;DHT22;6470;47.654;7.896;2024-03-25T05:39:11;-0.50;99.90
12811;DHT22;6470;47.654;7.896;2024-03-25T05:41:37;3.00;99.90
12811;DHT22;6470;47.654;7.896;2024-03-25T05:46:29;2.50;99.90
12811;DHT22;6470;47.654;7.896;2024-03-25T05:48:54;2.60;99.90
12811;DHT22;6470;47.654;7.896;2024-03-25T05:51:20;2.80;99.90
12811;DHT22;6470;47.654;7.896;2024-03-25T05:53:46;-0.70;99.90
12811;DHT22;6470;47.654;7.896;2024-03-25T05:58:37;-0.90;99.90
12811;DHT22;6470;47.654;7.896;2024-03-25T06:03:30;2.80;99.90
12811;DHT22;6470;47.654;7.896;2024-03-25T06:05:56;-0.10;99.90
12811;DHT22;6470;47.654;7.896;2024-03-25T06:08:22;2.90;99.90
12811;DHT22;6470;47.654;7.896;2024-03-25T06:10:51;2.80;99.90
12811;DHT22;6470;47.654;7.896;2024-03-25T06:13:17;3.00;99.90
12811;DHT22;6470;47.654;7.896;2024-03-25T06:18:08;3.30;99.90
12811;DHT22;6470;47.654;7.896;2024-03-25T06:20:34;2.70;99.90
12811;DHT22;6470;47.654;7.896;2024-03-25T06:23:00;3.00;99.90
12811;DHT22;6470;47.654;7.896;2024-03-25T06:25:26;3.00;99.90
12811;DHT22;6470;47.654;7.896;2024-03-25T06:27:56;3.00;99.90
12811;DHT22;6470;47.654;7.896;2024-03-25T06:33:07;3.00;99.90
12811;DHT22;6470;47.654;7.896;2024-03-25T06:38:18;3.30;99.90
12811;DHT22;6470;47.654;7.896;2024-03-25T06:40:45;4.00;99.90
12811;DHT22;6470;47.654;7.896;2024-03-25T06:43:10;4.20;99.90
12811;DHT22;6470;47.654;7.896;2024-03-25T06:45:36;3.70;99.90
12811;DHT22;6470;47.654;7.896;2024-03-25T06:48:02;3.90;99.90
12811;DHT22;6470;47.654;7.896;2024-03-25T06:50:28;4.50;99.90
12811;DHT22;6470;47.654;7.896;2024-03-25T06:55:19;5.40;99.90
12811;DHT22;6470;47.654;7.896;2024-03-25T06:57:48;5.40;99.90
12811;DHT22;6470;47.654;7.896;2024-03-25T07:00:14;2.50;99.90
12811;DHT22;6470;47.654;7.896;2024-03-25T07:02:40;2.10;99.90
12811;DHT22;6470;47.654;7.896;2024-03-25T07:05:07;2.10;99.90
12811;DHT22;6470;47.654;7.896;2024-03-25T07:07:33;2.20;99.90
12811;DHT22;6470;47.654;7.896;2024-03-25T07:10:00;5.10;99.90
12811;DHT22;6470;47.654;7.896;2024-03-25T07:12:25;5.50;99.90
12811;DHT22;6470;47.654;7.896;2024-03-25T07:14:51;5.70;99.90
12811;DHT22;6470;47.654;7.896;2024-03-25T07:22:10;5.60;99.90
12811;DHT22;6470;47.654;7.896;2024-03-25T07:24:36;6.20;99.90
12811;DHT22;6470;47.654;7.896;2024-03-25T07:27:01;5.70;99.90
12811;DHT22;6470;47.654;7.896;2024-03-25T07:29:27;5.90;99.90
12811;DHT22;6470;47.654;7.896;2024-03-25T07:31:53;3.50;99.90
12811;DHT22;6470;47.654;7.896;2024-03-25T07:36:44;6.60;99.90
12811;DHT22;6470;47.654;7.896;2024-03-25T07:39:10;6.60;99.90
12811;DHT22;6470;47.654;7.896;2024-03-25T07:41:39;6.30;99.90
12811;DHT22;6470;47.654;7.896;2024-03-25T07:44:05;6.50;99.90
12811;DHT22;6470;47.654;7.896;2024-03-25T07:48:57;6.90;99.90
12811;DHT22;6470;47.654;7.896;2024-03-25T07:51:23;6.80;99.90
12811;DHT22;6470;47.654;7.896;2024-03-25T07:53:49;7.10;99.90
12811;DHT22;6470;47.654;7.896;2024-03-25T07:56:18;6.70;99.90
12811;DHT22;6470;47.654;7.896;2024-03-25T08:01:10;7.30;99.90
12811;DHT22;6470;47.654;7.896;2024-03-25T08:03:35;6.50;99.90
12811;DHT22;6470;47.654;7.896;2024-03-25T08:06:01;6.60;99.90
12811;DHT22;6470;47.654;7.896;2024-03-25T08:08:28;6.50;99.90
12811;DHT22;6470;47.654;7.896;2024-03-25T08:10:54;7.80;99.90
12811;DHT22;6470;47.654;7.896;2024-03-25T08:13:22;8.40;99.90
12811;DHT22;6470;47.654;7.896;2024-03-25T08:15:48;8.10;99.90
12811;DHT22;6470;47.654;7.896;2024-03-25T08:20:40;8.20;99.90
12811;DHT22;6470;47.654;7.896;2024-03-25T08:23:06;8.10;99.90
12811;DHT22;6470;47.654;7.896;2024-03-25T08:25:31;8.50;99.90
12811;DHT22;6470;47.654;7.896;2024-03-25T08:30:24;8.20;99.90
12811;DHT22;6470;47.654;7.896;2024-03-25T08:32:50;8.80;99.90
12811;DHT22;6470;47.654;7.896;2024-03-25T08:35:16;8.20;99.90
12811;DHT22;6470;47.654;7.896;2024-03-25T08:40:08;8.20;99.90
12811;DHT22;6470;47.654;7.896;2024-03-25T08:42:34;9.10;99.90
12811;DHT22;6470;47.654;7.896;2024-03-25T08:47:26;9.60;99.90
12811;DHT22;6470;47.654;7.896;2024-03-25T08:52:18;8.50;99.90
12811;DHT22;6470;47.654;7.896;2024-03-25T08:54:44;8.90;99.90
12811;DHT22;6470;47.654;7.896;2024-03-25T08:57:09;8.80;99.90
12811;DHT22;6470;47.654;7.896;2024-03-25T08:59:35;9.50;99.90
12811;DHT22;6470;47.654;7.896;2024-03-25T09:04:27;9.80;99.90
12811;DHT22;6470;47.654;7.896;2024-03-25T09:06:53;10.20;99.90
12811;DHT22;6470;47.654;7.896;2024-03-25T09:09:18;10.00;99.90
12811;DHT22;6470;47.654;7.896;2024-03-25T09:14:29;9.70;99.90
12811;DHT22;6470;47.654;7.896;2024-03-25T09:16:54;9.40;99.90
12811;DHT22;6470;47.654;7.896;2024-03-25T09:19:20;10.00;99.90
12811;DHT22;6470;47.654;7.896;2024-03-25T09:21:45;9.30;99.90
12811;DHT22;6470;47.654;7.896;2024-03-25T09:24:11;9.70;99.90
12811;DHT22;6470;47.654;7.896;2024-03-25T09:26:37;10.10;99.90
12811;DHT22;6470;47.654;7.896;2024-03-25T09:29:02;9.70;99.90
12811;DHT22;6470;47.654;7.896;2024-03-25T09:31:28;9.20;99.90
12811;DHT22;6470;47.654;7.896;2024-03-25T09:33:54;10.10;99.90
12811;DHT22;6470;47.654;7.896;2024-03-25T09:36:20;9.60;99.90
12811;DHT22;6470;47.654;7.896;2024-03-25T09:38:46;9.30;99.90
12811;DHT22;6470;47.654;7.896;2024-03-25T09:41:11;10.20;99.90
12811;DHT22;6470;47.654;7.896;2024-03-25T09:43:44;9.40;99.90
12811;DHT22;6470;47.654;7.896;2024-03-25T09:46:13;9.00;99.90
12811;DHT22;6470;47.654;7.896;2024-03-25T09:48:39;9.30;99.90
12811;DHT22;6470;47.654;7.896;2024-03-25T09:51:06;9.40;99.90
12811;DHT22;6470;47.654;7.896;2024-03-25T09:55:59;9.90;99.90
12811;DHT22;6470;47.654;7.896;2024-03-25T09:58:25;9.80;99.90
12811;DHT22;6470;47.654;7.896;2024-03-25T10:00:51;9.70;99.90
12811;DHT22;6470;47.654;7.896;2024-03-25T10:03:17;9.90;99.90
12811;DHT22;6470;47.654;7.896;2024-03-25T10:05:43;10.00;99.90
12811;DHT22;6470;47.654;7.896;2024-03-25T10:08:09;10.00;99.90
12811;DHT22;6470;47.654;7.896;2024-03-25T10:10:35;9.10;99.90
12811;DHT22;6470;47.654;7.896;2024-03-25T10:13:05;9.60;99.90
12811;DHT22;6470;47.654;7.896;2024-03-25T10:15:32;10.20;99.90
12811;DHT22;6470;47.654;7.896;2024-03-25T10:17:58;10.50;99.90
12811;DHT22;6470;47.654;7.896;2024-03-25T10:20:24;9.60;99.90
12811;DHT22;6470;47.654;7.896;2024-03-25T10:25:26;10.60;99.90
12811;DHT22;6470;47.654;7.896;2024-03-25T10:28:01;9.80;99.90
12811;DHT22;6470;47.654;7.896;2024-03-25T10:30:28;12.30;99.90
12811;DHT22;6470;47.654;7.896;2024-03-25T10:33:04;12.20;99.90
12811;DHT22;6470;47.654;7.896;2024-03-25T10:35:35;10.80;99.90
12811;DHT22;6470;47.654;7.896;2024-03-25T10:38:05;12.00;99.90
12811;DHT22;6470;47.654;7.896;2024-03-25T10:40:36;11.50;99.90
12811;DHT22;6470;47.654;7.896;2024-03-25T10:43:06;12.30;99.90
12811;DHT22;6470;47.654;7.896;2024-03-25T10:45:35;12.30;99.90
12811;DHT22;6470;47.654;7.896;2024-03-25T10:48:09;12.20;99.90
12811;DHT22;6470;47.654;7.896;2024-03-25T10:50:39;12.40;99.90
12811;DHT22;6470;47.654;7.896;2024-03-25T10:53:08;11.10;99.90
12811;DHT22;6470;47.654;7.896;2024-03-25T10:55:36;11.70;99.90
12811;DHT22;6470;47.654;7.896;2024-03-25T10:58:04;12.30;99.90
12811;DHT22;6470;47.654;7.896;2024-03-25T11:00:30;12.30;99.90
12811;DHT22;6470;47.654;7.896;2024-03-25T11:02:59;15.10;99.90
12811;DHT22;6470;47.654;7.896;2024-03-25T11:05:25;12.10;99.90
12811;DHT22;6470;47.654;7.896;2024-03-25T11:07:51;14.80;99.90
12811;DHT22;6470;47.654;7.896;2024-03-25T11:10:17;14.50;99.90
12811;DHT22;6470;47.654;7.896;2024-03-25T11:12:43;9.80;99.90
12811;DHT22;6470;47.654;7.896;2024-03-25T11:15:09;12.00;99.90
12811;DHT22;6470;47.654;7.896;2024-03-25T11:17:35;12.30;99.90
12811;DHT22;6470;47.654;7.896;2024-03-25T11:20:08;9.50;99.90
12811;DHT22;6470;47.654;7.896;2024-03-25T11:22:34;15.30;99.90
12811;DHT22;6470;47.654;7.896;2024-03-25T11:25:06;15.30;99.90
12811;DHT22;6470;47.654;7.896;2024-03-25T11:27:35;12.10;99.90
12811;DHT22;6470;47.654;7.896;2024-03-25T11:30:01;15.20;99.90
12811;DHT22;6470;47.654;7.896;2024-03-25T11:32:28;15.40;99.90
12811;DHT22;6470;47.654;7.896;2024-03-25T11:34:54;14.90;99.90
12811;DHT22;6470;47.654;7.896;2024-03-25T11:37:19;12.20;99.90
12811;DHT22;6470;47.654;7.896;2024-03-25T11:39:45;10.00;99.90
12811;DHT22;6470;47.654;7.896;2024-03-25T11:42:13;14.70;99.90
12811;DHT22;6470;47.654;7.896;2024-03-25T11:44:38;14.70;99.90
12811;DHT22;6470;47.654;7.896;2024-03-25T11:47:07;12.20;99.90
12811;DHT22;6470;47.654;7.896;2024-03-25T11:49:38;15.30;99.90
12811;DHT22;6470;47.654;7.896;2024-03-25T11:52:06;15.30;99.90
12811;DHT22;6470;47.654;7.896;2024-03-25T11:54:32;15.20;99.90
12811;DHT22;6470;47.654;7.896;2024-03-25T11:56:58;15.30;99.90
12811;DHT22;6470;47.654;7.896;2024-03-25T11:59:24;15.10;99.90
12811;DHT22;6470;47.654;7.896;2024-03-25T12:04:18;12.50;99.90
12811;DHT22;6470;47.654;7.896;2024-03-25T12:06:44;15.40;99.90
12811;DHT22;6470;47.654;7.896;2024-03-25T12:09:13;15.30;99.90
12811;DHT22;6470;47.654;7.896;2024-03-25T12:11:57;15.10;99.90
12811;DHT22;6470;47.654;7.896;2024-03-25T12:14:23;15.50;99.90
12811;DHT22;6470;47.654;7.896;2024-03-25T12:16:51;15.30;99.90
12811;DHT22;6470;47.654;7.896;2024-03-25T12:19:19;15.60;99.90
12811;DHT22;6470;47.654;7.896;2024-03-25T12:21:45;14.70;99.90
12811;DHT22;6470;47.654;7.896;2024-03-25T12:24:13;15.60;99.90
12811;DHT22;6470;47.654;7.896;2024-03-25T12:26:40;15.00;99.90
12811;DHT22;6470;47.654;7.896;2024-03-25T12:31:32;15.30;99.90
12811;DHT22;6470;47.654;7.896;2024-03-25T12:33:57;14.60;99.90
12811;DHT22;6470;47.654;7.896;2024-03-25T12:36:23;14.90;99.90
12811;DHT22;6470;47.654;7.896;2024-03-25T12:38:55;15.50;99.90
12811;DHT22;6470;47.654;7.896;2024-03-25T12:41:24;9.80;99.90
12811;DHT22;6470;47.654;7.896;2024-03-25T12:43:51;15.40;99.90
12811;DHT22;6470;47.654;7.896;2024-03-25T12:46:17;9.70;99.90
12811;DHT22;6470;47.654;7.896;2024-03-25T12:48:44;15.20;99.90
12811;DHT22;6470;47.654;7.896;2024-03-25T12:51:14;12.80;99.90
12811;DHT22;6470;47.654;7.896;2024-03-25T12:53:40;10.20;99.90
12811;DHT22;6470;47.654;7.896;2024-03-25T12:56:06;15.60;99.90
12811;DHT22;6470;47.654;7.896;2024-03-25T12:58:32;15.00;99.90
12811;DHT22;6470;47.654;7.896;2024-03-25T13:00:57;14.80;99.90
12811;DHT22;6470;47.654;7.896;2024-03-25T13:03:23;15.30;99.90
12811;DHT22;6470;47.654;7.896;2024-03-25T13:05:49;15.70;99.90
12811;DHT22;6470;47.654;7.896;2024-03-25T13:08:14;15.60;99.90
12811;DHT22;6470;47.654;7.896;2024-03-25T13:15:32;15.40;99.90
12811;DHT22;6470;47.654;7.896;2024-03-25T13:22:53;15.70;99.90
12811;DHT22;6470;47.654;7.896;2024-03-25T13:25:21;15.10;99.90
12811;DHT22;6470;47.654;7.896;2024-03-25T13:32:38;15.00;99.90
12811;DHT22;6470;47.654;7.896;2024-03-25T13:35:04;15.20;99.90
12811;DHT22;6470;47.654;7.896;2024-03-25T13:37:31;15.60;99.90
12811;DHT22;6470;47.654;7.896;2024-03-25T13:44:49;10.50;99.90
12811;DHT22;6470;47.654;7.896;2024-03-25T13:47:15;15.20;99.90
12811;DHT22;6470;47.654;7.896;2024-03-25T13:49:40;15.40;99.90
12811;DHT22;6470;47.654;7.896;2024-03-25T13:52:06;10.40;99.90
12811;DHT22;6470;47.654;7.896;2024-03-25T13:54:32;15.40;99.90
12811;DHT22;6470;47.654;7.896;2024-03-25T13:56:58;15.60;99.90
12811;DHT22;6470;47.654;7.896;2024-03-25T13:59:23;15.10;99.90
12811;DHT22;6470;47.654;7.896;2024-03-25T14:01:49;15.70;99.90
12811;DHT22;6470;47.654;7.896;2024-03-25T14:04:17;10.30;99.90
12811;DHT22;6470;47.654;7.896;2024-03-25T14:16:30;15.80;99.90
12811;DHT22;6470;47.654;7.896;2024-03-25T14:18:55;15.90;99.90
12811;DHT22;6470;47.654;7.896;2024-03-25T14:21:21;15.60;99.90
12811;DHT22;6470;47.654;7.896;2024-03-25T14:23:46;9.90;99.90
12811;DHT22;6470;47.654;7.896;2024-03-25T14:26:13;15.60;99.90
12811;DHT22;6470;47.654;7.896;2024-03-25T14:28:42;10.00;99.90
12811;DHT22;6470;47.654;7.896;2024-03-25T14:33:33;14.90;99.90
12811;DHT22;6470;47.654;7.896;2024-03-25T14:38:25;10.10;99.90
12811;DHT22;6470;47.654;7.896;2024-03-25T14:40:51;15.50;99.90
12811;DHT22;6470;47.654;7.896;2024-03-25T14:43:18;10.10;99.90
12811;DHT22;6470;47.654;7.896;2024-03-25T14:45:45;15.20;99.90
12811;DHT22;6470;47.654;7.896;2024-03-25T14:50:37;15.50;97.80
12811;DHT22;6470;47.654;7.896;2024-03-25T14:53:04;14.90;98.50
12811;DHT22;6470;47.654;7.896;2024-03-25T14:55:30;15.50;97.90
12811;DHT22;6470;47.654;7.896;2024-03-25T14:57:56;15.10;98.30
12811;DHT22;6470;47.654;7.896;2024-03-25T15:00:22;15.40;98.10
12811;DHT22;6470;47.654;7.896;2024-03-25T15:02:52;14.70;99.20
12811;DHT22;6470;47.654;7.896;2024-03-25T15:05:18;15.10;98.00
12811;DHT22;6470;47.654;7.896;2024-03-25T15:07:44;15.20;99.20
12811;DHT22;6470;47.654;7.896;2024-03-25T15:10:10;15.00;98.30
12811;DHT22;6470;47.654;7.896;2024-03-25T15:12:37;15.30;97.90
12811;DHT22;6470;47.654;7.896;2024-03-25T15:15:04;12.70;96.00
12811;DHT22;6470;47.654;7.896;2024-03-25T15:17:34;15.60;97.40
12811;DHT22;6470;47.654;7.896;2024-03-25T15:22:26;15.60;97.50
12811;DHT22;6470;47.654;7.896;2024-03-25T15:24:52;15.60;97.10
12811;DHT22;6470;47.654;7.896;2024-03-25T15:27:17;9.60;96.60
12811;DHT22;6470;47.654;7.896;2024-03-25T15:29:43;15.70;98.60
12811;DHT22;6470;47.654;7.896;2024-03-25T15:34:36;15.70;98.90
12811;DHT22;6470;47.654;7.896;2024-03-25T15:39:28;15.20;98.20
12811;DHT22;6470;47.654;7.896;2024-03-25T15:41:53;15.50;98.40
12811;DHT22;6470;47.654;7.896;2024-03-25T15:46:45;15.70;97.60
12811;DHT22;6470;47.654;7.896;2024-03-25T15:49:11;15.30;97.60
12811;DHT22;6470;47.654;7.896;2024-03-25T15:51:37;15.40;97.00
12811;DHT22;6470;47.654;7.896;2024-03-25T15:56:30;15.30;97.60
12811;DHT22;6470;47.654;7.896;2024-03-25T15:58:56;15.30;98.80
12811;DHT22;6470;47.654;7.896;2024-03-25T16:01:23;14.60;98.80
12811;DHT22;6470;47.654;7.896;2024-03-25T16:03:49;14.60;99.20
12811;DHT22;6470;47.654;7.896;2024-03-25T16:06:14;14.80;98.80
12811;DHT22;6470;47.654;7.896;2024-03-25T16:08:41;15.70;97.80
12811;DHT22;6470;47.654;7.896;2024-03-25T16:11:17;9.70;96.10
12811;DHT22;6470;47.654;7.896;2024-03-25T16:13:43;9.50;96.90
12811;DHT22;6470;47.654;7.896;2024-03-25T16:16:09;15.60;98.90
12811;DHT22;6470;47.654;7.896;2024-03-25T16:18:35;15.60;98.20
12811;DHT22;6470;47.654;7.896;2024-03-25T16:21:16;15.40;98.30
12811;DHT22;6470;47.654;7.896;2024-03-25T16:23:44;15.60;98.40
12811;DHT22;6470;47.654;7.896;2024-03-25T16:28:37;15.30;98.80
12811;DHT22;6470;47.654;7.896;2024-03-25T16:31:03;15.50;98.10
12811;DHT22;6470;47.654;7.896;2024-03-25T16:33:30;15.10;98.20
12811;DHT22;6470;47.654;7.896;2024-03-25T16:35:56;15.40;98.90
12811;DHT22;6470;47.654;7.896;2024-03-25T16:38:21;15.60;98.40
12811;DHT22;6470;47.654;7.896;2024-03-25T16:52:30;9.20;97.00
12811;DHT22;6470;47.654;7.896;2024-03-25T16:54:55;15.30;99.10
12811;DHT22;6470;47.654;7.896;2024-03-25T16:57:21;15.40;99.10
12811;DHT22;6470;47.654;7.896;2024-03-25T16:59:46;12.20;98.60
12811;DHT22;6470;47.654;7.896;2024-03-25T17:02:13;11.90;98.90
12811;DHT22;6470;47.654;7.896;2024-03-25T17:07:06;11.90;98.70
12811;DHT22;6470;47.654;7.896;2024-03-25T17:09:31;9.40;98.00
12811;DHT22;6470;47.654;7.896;2024-03-25T17:11:59;9.20;98.40
12811;DHT22;6470;47.654;7.896;2024-03-25T17:14:25;12.50;98.70
12811;DHT22;6470;47.654;7.896;2024-03-25T17:16:50;12.30;98.20
12811;DHT22;6470;47.654;7.896;2024-03-25T17:19:16;12.40;97.80
12811;DHT22;6470;47.654;7.896;2024-03-25T17:21:42;9.50;97.50
12811;DHT22;6470;47.654;7.896;2024-03-25T17:24:08;9.20;96.80
12811;DHT22;6470;47.654;7.896;2024-03-25T17:26:34;9.30;97.10
12811;DHT22;6470;47.654;7.896;2024-03-25T17:31:27;12.40;97.60
12811;DHT22;6470;47.654;7.896;2024-03-25T17:36:20;9.30;96.40
12811;DHT22;6470;47.654;7.896;2024-03-25T17:38:46;10.40;96.90
12811;DHT22;6470;47.654;7.896;2024-03-25T17:41:11;10.60;95.90
12811;DHT22;6470;47.654;7.896;2024-03-25T17:43:38;12.10;96.70
12811;DHT22;6470;47.654;7.896;2024-03-25T17:46:03;9.10;94.60
12811;DHT22;6470;47.654;7.896;2024-03-25T17:48:29;9.20;94.60
12811;DHT22;6470;47.654;7.896;2024-03-25T17:50:57;10.40;95.10
12811;DHT22;6470;47.654;7.896;2024-03-25T17:53:29;9.20;95.40
12811;DHT22;6470;47.654;7.896;2024-03-25T17:55:55;9.10;94.50
12811;DHT22;6470;47.654;7.896;2024-03-25T17:58:21;10.70;95.20
12811;DHT22;6470;47.654;7.896;2024-03-25T18:00:48;9.00;94.90
12811;DHT22;6470;47.654;7.896;2024-03-25T18:03:16;10.50;94.90
12811;DHT22;6470;47.654;7.896;2024-03-25T18:08:08;10.30;95.40
12811;DHT22;6470;47.654;7.896;2024-03-25T18:15:30;10.50;94.30
12811;DHT22;6470;47.654;7.896;2024-03-25T18:17:56;9.80;94.30
12811;DHT22;6470;47.654;7.896;2024-03-25T18:22:48;9.80;93.50
12811;DHT22;6470;47.654;7.896;2024-03-25T18:25:14;9.20;93.70
12811;DHT22;6470;47.654;7.896;2024-03-25T18:32:33;10.20;93.20
12811;DHT22;6470;47.654;7.896;2024-03-25T18:39:50;10.00;93.70
12811;DHT22;6470;47.654;7.896;2024-03-25T18:42:16;9.50;92.70
12811;DHT22;6470;47.654;7.896;2024-03-25T18:44:43;9.50;93.50
12811;DHT22;6470;47.654;7.896;2024-03-25T18:47:09;10.10;93.00
12811;DHT22;6470;47.654;7.896;2024-03-25T18:54:29;9.90;93.00
12811;DHT22;6470;47.654;7.896;2024-03-25T18:59:21;10.30;93.70
12811;DHT22;6470;47.654;7.896;2024-03-25T19:01:47;10.00;93.60
12811;DHT22;6470;47.654;7.896;2024-03-25T19:04:12;10.10;93.90
12811;DHT22;6470;47.654;7.896;2024-03-25T19:06:38;9.70;94.10
12811;DHT22;6470;47.654;7.896;2024-03-25T19:09:04;10.10;94.50
12811;DHT22;6470;47.654;7.896;2024-03-25T19:11:30;10.20;94.70
12811;DHT22;6470;47.654;7.896;2024-03-25T19:13:56;9.60;94.80
12811;DHT22;6470;47.654;7.896;2024-03-25T19:16:21;9.60;94.60
12811;DHT22;6470;47.654;7.896;2024-03-25T19:18:47;9.90;95.10
12811;DHT22;6470;47.654;7.896;2024-03-25T19:21:13;10.10;95.70
12811;DHT22;6470;47.654;7.896;2024-03-25T19:23:38;10.30;95.60
12811;DHT22;6470;47.654;7.896;2024-03-25T19:26:04;10.10;95.60
12811;DHT22;6470;47.654;7.896;2024-03-25T19:28:29;10.40;95.70
12811;DHT22;6470;47.654;7.896;2024-03-25T19:30:55;10.40;95.90
12811;DHT22;6470;47.654;7.896;2024-03-25T19:33:21;9.90;96.10
12811;DHT22;6470;47.654;7.896;2024-03-25T19:35:46;10.10;96.00
12811;DHT22;6470;47.654;7.896;2024-03-25T19:38:12;9.80;96.30
12811;DHT22;6470;47.654;7.896;2024-03-25T19:40:38;9.40;96.10
12811;DHT22;6470;47.654;7.896;2024-03-25T19:43:03;10.30;96.20
12811;DHT22;6470;47.654;7.896;2024-03-25T19:45:29;10.50;96.30
12811;DHT22;6470;47.654;7.896;2024-03-25T19:50:21;10.00;96.20
12811;DHT22;6470;47.654;7.896;2024-03-25T19:52:46;9.70;96.10
12811;DHT22;6470;47.654;7.896;2024-03-25T19:55:13;10.30;96.60